WetterOnline ( https://www.wetteronline.de )

Wetter aktuell Würzburg

Aktuelles Wetter: Würzburg (272m)

6-stündlich | Neueste Meldungen
Ortszeit Temperatur Wetter
Mi, 28.09. 14:00 11.0° C bedeckt
Mi, 28.09. 8:00 8.1° C Sprühregen
Mi, 28.09. 2:00 7.5° C bewölkt
Di, 27.09. 20:00 8.7° C leichter Regen
Di, 27.09. 14:00 11.3° C wolkig
Di, 27.09. 8:00 8.7° C leichter Regen
Di, 27.09. 2:00 9.7° C leichter Regen
Mo, 26.09. 20:00 11.1° C bedeckt
Ortszeit Temperatur Wetter
Mi, 28.09. 16:30 12.6° C wolkig
Mi, 28.09. 16:20 12.6° C wolkig
Mi, 28.09. 16:10 12.5° C bedeckt
Mi, 28.09. 16:00 12.7° C wolkig
Mi, 28.09. 15:50 12.7° C wolkig
Mi, 28.09. 15:40 12.4° C bewölkt
Mi, 28.09. 15:30 11.2° C wolkig
Mi, 28.09. 15:00 11.3° C bewölkt
Mi, 28.09. 14:30 11.6° C bewölkt
Mi, 28.09. 14:00 11.0° C bedeckt
Mi, 28.09. 13:30 10.7° C bewölkt
Ortszeit Relative Feuchte Sichtweite
Mi, 28.09. 14:00 64% 65 km
Mi, 28.09. 8:00 91% >70 km
Mi, 28.09. 2:00 89% 65 km
Di, 27.09. 20:00 84% 50 km
Di, 27.09. 14:00 68% >70 km
Di, 27.09. 8:00 90% 27 km
Di, 27.09. 2:00 92% 17 km
Mo, 26.09. 20:00 80% >70 km
Ortszeit Relative Feuchte Sichtweite
Mi, 28.09. 16:30 58% 65 km
Mi, 28.09. 16:20 58% -
Mi, 28.09. 16:10 58% -
Mi, 28.09. 16:00 60% >70 km
Mi, 28.09. 15:50 60% -
Mi, 28.09. 15:40 63% -
Mi, 28.09. 15:30 62% >70 km
Mi, 28.09. 15:00 61% 65 km
Mi, 28.09. 14:30 64% >70 km
Mi, 28.09. 14:00 64% 65 km
Mi, 28.09. 13:30 65% >70 km
Ortszeit Niederschlagsmenge Niederschlagsart
Mi, 28.09. 14:00 0.1 l/m2 in 6 Std. Regen
Mi, 28.09. 8:00 5 l/m2 in 12 Std. Regen
Mi, 28.09. 2:00 0.1 l/m2 in 6 Std. Regen
Di, 27.09. 20:00 0.5 l/m2 in 12 Std. Regen
Di, 27.09. 14:00 0.4 l/m2 in 6 Std. Regen
Di, 27.09. 8:00 7 l/m2 in 12 Std. Regen
Di, 27.09. 2:00 4 l/m2 in 6 Std. Regen
Mo, 26.09. 20:00 0.6 l/m2 in 12 Std. Regen
Ortszeit Niederschlagsmenge Niederschlagsart
Mi, 28.09. 16:30 0.0 l/m2 in 1 Std. -
Mi, 28.09. 16:20 keine Meldung -
Mi, 28.09. 16:10 keine Meldung -
Mi, 28.09. 16:00 0.0 l/m2 in 1 Std. -
Mi, 28.09. 15:50 keine Meldung -
Mi, 28.09. 15:40 keine Meldung -
Mi, 28.09. 15:30 0.0 l/m2 in 1 Std. -
Mi, 28.09. 15:00 0.0 l/m2 in 1 Std. -
Mi, 28.09. 14:30 0.0 l/m2 in 1 Std. -
Mi, 28.09. 14:00 0.0 l/m2 in 1 Std. Regen
Mi, 28.09. 13:30 0.0 l/m2 in 1 Std. -
Ortszeit Stärke Spitze Richtung
km/h Bft. km/h Grad Sektor
Mi, 28.09. 14:00 18 3 36 290° W
Mi, 28.09. 8:00 13 3 31 280° W
Mi, 28.09. 2:00 17 3 35 200° S
Di, 27.09. 20:00 25 4 43 240° SW
Di, 27.09. 14:00 22 4 43 260° W
Di, 27.09. 8:00 26 4 41 270° W
Di, 27.09. 2:00 25 4 40 220° SW
Mo, 26.09. 20:00 18 3 54 200° S
Ortszeit Stärke Spitze Richtung
km/h Bft. km/h Grad Sektor
Mi, 28.09. 16:30 22 4 32 270° W
Mi, 28.09. 16:20 22 4 - 270° W
Mi, 28.09. 16:10 22 4 - 260° W
Mi, 28.09. 16:00 14 3 32 260° W
Mi, 28.09. 15:50 14 3 - 260° W
Mi, 28.09. 15:40 14 3 - 280° W
Mi, 28.09. 15:30 22 4 31 280° W
Mi, 28.09. 15:00 14 3 29 280° W
Mi, 28.09. 14:30 18 3 29 260° W
Mi, 28.09. 14:00 18 3 32 290° W
Mi, 28.09. 13:30 20 4 31 260° W
Ortszeit Untergrenze Bedeckung Gattung
total tief tief mittel hoch
Mi, 28.09. 14:00 1500 m 8/8 8/8 - - -
Mi, 28.09. 8:00 510 m 8/8 7/8 - - -
Mi, 28.09. 2:00 1800 m 8/8 7/8 - - -
Di, 27.09. 20:00 1500 m 8/8 3/8 - - -
Di, 27.09. 14:00 870 m 8/8 3/8 - - -
Di, 27.09. 8:00 480 m 8/8 8/8 - - -
Di, 27.09. 2:00 1350 m 8/8 8/8 - - -
Mo, 26.09. 20:00 1500 m 8/8 8/8 - - -
Ortszeit Bedeckungsgrad in Achtel und Wolkenuntergrenze
Mi, 28.09. 16:30 8(8100m) 8(9000m)
Mi, 28.09. 16:20 8(8100m) 8(9000m)
Mi, 28.09. 16:10 8
Mi, 28.09. 16:00 2(1500m) 7(8100m) 7(9000m)
Mi, 28.09. 15:50 2(1500m) 7(8100m) 7(9000m)
Mi, 28.09. 15:40 7
Mi, 28.09. 15:30 2(1470m) 5(1800m) 6(8400m)
Mi, 28.09. 15:00 4(1050m) 4(1500m) 7(1800m)
Mi, 28.09. 14:30 2(990m) 7(1500m)
Mi, 28.09. 14:00 8(1500m)
Mi, 28.09. 13:30 1(840m) 5(1320m) 7(1500m)
Ortszeit Luftdruck NN (hPa) Tendenz (hPa in 3 Std.)
Mi, 28.09. 14:00 999 + 0,8
Mi, 28.09. 8:00 997 - 0,8
Mi, 28.09. 2:00 1000 - 1,5
Di, 27.09. 20:00 1001 + 0,4
Di, 27.09. 14:00 1001 + 0,1
Di, 27.09. 8:00 999 + 1,1
Di, 27.09. 2:00 999 - 2,5
Mo, 26.09. 20:00 1003 - 1,4
Ortszeit Luftdruck NN (hPa) Tendenz (hPa in 3 Std.)
Mi, 28.09. 16:30 999 0,0
Mi, 28.09. 16:20 999 keine Meldung
Mi, 28.09. 16:10 999 keine Meldung
Mi, 28.09. 16:00 999 + 0,1
Mi, 28.09. 15:50 999 keine Meldung
Mi, 28.09. 15:40 999 keine Meldung
Mi, 28.09. 15:30 999 + 0,3
Mi, 28.09. 15:00 999 + 0,3
Mi, 28.09. 14:30 999 + 0,4
Mi, 28.09. 14:00 999 + 0,8
Mi, 28.09. 13:30 999 + 1,2
Ortszeit Schneehöhe (cm)
Mi, 28.09. 14:00 0
Mi, 28.09. 8:00 0
Mi, 28.09. 2:00 0
Di, 27.09. 20:00 0
Di, 27.09. 14:00 0
Di, 27.09. 8:00 0
Di, 27.09. 2:00 0
Mo, 26.09. 20:00 0
Ortszeit Schneehöhe (cm)
Mi, 28.09. 16:30 0
Mi, 28.09. 16:20 0
Mi, 28.09. 16:10 0
Mi, 28.09. 16:00 0
Mi, 28.09. 15:50 0
Mi, 28.09. 15:40 0
Mi, 28.09. 15:30 0
Mi, 28.09. 15:00 0
Mi, 28.09. 14:30 0
Mi, 28.09. 14:00 0
Mi, 28.09. 13:30 0
Link zu dieser Seite / Seite empfehlen

Das Wetter in ...